WetterOnline ( http://www.wetteronline.de )

Wetter aktuell Bonn

Aktuelles Wetter: Roleber (162m)

6-stündlich | Neueste Meldungen
Ortszeit Temperatur Wetter
Di, 24.04. 14:00 16.8° C bedeckt
Di, 24.04. 8:00 9.3° C bedeckt
Di, 24.04. 2:00 10.3° C leicht bewölkt
Mo, 23.04. 20:00 16.2° C leicht bewölkt
Mo, 23.04. 14:00 17.3° C wolkig
Mo, 23.04. 8:00 15.3° C bewölkt
Mo, 23.04. 2:00 18.1° C bedeckt
So, 22.04. 20:00 23.9° C bedeckt
Ortszeit Temperatur Wetter
Di, 24.04. 18:00 16.4° C bewölkt
Di, 24.04. 17:50 16.4° C bewölkt
Di, 24.04. 17:40 16.5° C bewölkt
Di, 24.04. 17:30 16.3° C bewölkt
Di, 24.04. 17:20 16.3° C bewölkt
Di, 24.04. 17:10 16.2° C bewölkt
Di, 24.04. 17:00 16.6° C bewölkt
Di, 24.04. 16:30 17.0° C wolkig
Di, 24.04. 16:00 17.1° C bewölkt
Di, 24.04. 15:30 17.2° C bewölkt
Di, 24.04. 15:00 17.6° C wolkig
Ortszeit Relative Feuchte Sichtweite
Di, 24.04. 14:00 60% 45 km
Di, 24.04. 8:00 80% 30 km
Di, 24.04. 2:00 79% 40 km
Mo, 23.04. 20:00 53% 40 km
Mo, 23.04. 14:00 58% 18 km
Mo, 23.04. 8:00 86% 22 km
Mo, 23.04. 2:00 68% 30 km
So, 22.04. 20:00 38% 30 km
Ortszeit Relative Feuchte Sichtweite
Di, 24.04. 18:00 69% 26 km
Di, 24.04. 17:50 69% -
Di, 24.04. 17:40 69% -
Di, 24.04. 17:30 69% 30 km
Di, 24.04. 17:20 69% -
Di, 24.04. 17:10 69% -
Di, 24.04. 17:00 67% 30 km
Di, 24.04. 16:30 65% 35 km
Di, 24.04. 16:00 62% 35 km
Di, 24.04. 15:30 59% 40 km
Di, 24.04. 15:00 57% 45 km
Ortszeit Niederschlagsmenge Niederschlagsart
Di, 24.04. 14:00 0.0 l/m2 in 6 Std. -
Di, 24.04. 8:00 0.0 l/m2 in 12 Std. -
Di, 24.04. 2:00 0.0 l/m2 in 6 Std. -
Mo, 23.04. 20:00 0.1 l/m2 in 12 Std. Sprühregen
Mo, 23.04. 14:00 0.0 l/m2 in 6 Std. -
Mo, 23.04. 8:00 0.2 l/m2 in 12 Std. Regen
Mo, 23.04. 2:00 0.0 l/m2 in 6 Std. -
So, 22.04. 20:00 0.0 l/m2 in 12 Std. -
Ortszeit Niederschlagsmenge Niederschlagsart
Di, 24.04. 18:00 0.0 l/m2 in 1 Std. -
Di, 24.04. 17:50 keine Meldung -
Di, 24.04. 17:40 keine Meldung -
Di, 24.04. 17:30 0.0 l/m2 in 1 Std. -
Di, 24.04. 17:20 keine Meldung -
Di, 24.04. 17:10 keine Meldung -
Di, 24.04. 17:00 0.0 l/m2 in 1 Std. -
Di, 24.04. 16:30 0.0 l/m2 in 1 Std. -
Di, 24.04. 16:00 0.0 l/m2 in 1 Std. -
Di, 24.04. 15:30 0.0 l/m2 in 1 Std. -
Di, 24.04. 15:00 0.0 l/m2 in 1 Std. -
Ortszeit Stärke Spitze Richtung
km/h Bft. km/h Grad Sektor
Di, 24.04. 14:00 13 3 24 200° S
Di, 24.04. 8:00 7 2 20 230° SW
Di, 24.04. 2:00 6 1 26 280° W
Mo, 23.04. 20:00 14 3 40 290° W
Mo, 23.04. 14:00 14 3 29 290° W
Mo, 23.04. 8:00 6 1 44 310° NW
Mo, 23.04. 2:00 11 2 32 200° S
So, 22.04. 20:00 18 3 43 230° SW
Ortszeit Stärke Spitze Richtung
km/h Bft. km/h Grad Sektor
Di, 24.04. 18:00 7 2 18 340° N
Di, 24.04. 17:50 7 2 - 340° N
Di, 24.04. 17:40 7 2 - 340° N
Di, 24.04. 17:30 11 2 18 340° N
Di, 24.04. 17:20 11 2 - 340° N
Di, 24.04. 17:10 11 2 - 340° N
Di, 24.04. 17:00 11 2 25 330° NW
Di, 24.04. 16:30 13 3 24 320° NW
Di, 24.04. 16:00 11 2 22 310° NW
Di, 24.04. 15:30 7 2 18 320° NW
Di, 24.04. 15:00 11 2 22 220° SW
Ortszeit Untergrenze Bedeckung Gattung
total tief tief mittel hoch
Di, 24.04. 14:00 1080 m 8/8 8/8 - - -
Di, 24.04. 8:00 6300 m 8/8 8/8 - - -
Di, 24.04. 2:00 2700 m 3/8 - - - -
Mo, 23.04. 20:00 1800 m 5/8 2/8 - - -
Mo, 23.04. 14:00 1020 m 7/8 2/8 - - -
Mo, 23.04. 8:00 1500 m 8/8 5/8 - - -
Mo, 23.04. 2:00 3000 m 8/8 8/8 - - -
So, 22.04. 20:00 3900 m 8/8 8/8 - - -
Ortszeit Bedeckungsgrad in Achtel und Wolkenuntergrenze
Di, 24.04. 18:00 6(1500m) 7(6300m) 7(6900m)
Di, 24.04. 17:50 6(1500m) 7(6300m) 7(6900m)
Di, 24.04. 17:40 7(1500m) 7(6900m)
Di, 24.04. 17:30 7(1500m) 8(5700m) 8(6300m)
Di, 24.04. 17:20 7(1500m) 8(5700m) 8(6300m)
Di, 24.04. 17:10 5(1500m) 7(5700m) 8(6300m)
Di, 24.04. 17:00 5(1440m) 7(5700m) 8(6600m)
Di, 24.04. 16:30 1(1290m) 7(4800m) 8(5700m)
Di, 24.04. 16:00 7(1320m) 8(5700m) 8(5400m)
Di, 24.04. 15:30 7(1290m) 7(5700m)
Di, 24.04. 15:00 3(1200m) 8(4200m) 8(6600m)
Ortszeit Luftdruck NN (hPa) Tendenz (hPa in 3 Std.)
Di, 24.04. 14:00 1017 - 0,9
Di, 24.04. 8:00 1018 + 0,2
Di, 24.04. 2:00 1019 + 0,8
Mo, 23.04. 20:00 1016 + 0,9
Mo, 23.04. 14:00 1016 + 0,9
Mo, 23.04. 8:00 1014 + 0,9
Mo, 23.04. 2:00 1012 + 0,1
So, 22.04. 20:00 1010 + 1,0
Ortszeit Luftdruck NN (hPa) Tendenz (hPa in 3 Std.)
Di, 24.04. 18:00 1015 - 1,5
Di, 24.04. 17:50 1015 keine Meldung
Di, 24.04. 17:40 1015 keine Meldung
Di, 24.04. 17:30 1015 - 1,4
Di, 24.04. 17:20 1015 keine Meldung
Di, 24.04. 17:10 1015 keine Meldung
Di, 24.04. 17:00 1015 - 1,5
Di, 24.04. 16:30 1016 - 1,9
Di, 24.04. 16:00 1016 - 1,8
Di, 24.04. 15:30 1016 - 1,9
Di, 24.04. 15:00 1016 - 1,5
Ortszeit Schneehöhe (cm)
Di, 24.04. 14:00 0
Di, 24.04. 8:00 0
Di, 24.04. 2:00 0
Mo, 23.04. 20:00 0
Mo, 23.04. 14:00 0
Mo, 23.04. 8:00 0
Mo, 23.04. 2:00 0
So, 22.04. 20:00 0
Ortszeit Schneehöhe (cm)
Di, 24.04. 18:00 0
Di, 24.04. 17:50 0
Di, 24.04. 17:40 0
Di, 24.04. 17:30 0
Di, 24.04. 17:20 0
Di, 24.04. 17:10 0
Di, 24.04. 17:00 0
Di, 24.04. 16:30 0
Di, 24.04. 16:00 0
Di, 24.04. 15:30 0
Di, 24.04. 15:00 0
Link zu dieser Seite / Seite empfehlen

Das Wetter in ...